sensor_id;sensor_type;location;lat;lon;timestamp;pressure;altitude;pressure_sealevel;temperature;humidity
21817;BME280;13247;47.504;7.382;2023-04-29T00:01:51;97123.34;;;16.62;100.00
21817;BME280;13247;47.504;7.382;2023-04-29T00:04:36;97120.13;;;16.71;100.00
21817;BME280;13247;47.504;7.382;2023-04-29T00:07:20;97117.69;;;16.68;100.00
21817;BME280;13247;47.504;7.382;2023-04-29T00:10:06;97114.19;;;16.67;100.00
21817;BME280;13247;47.504;7.382;2023-04-29T00:12:51;97117.53;;;16.85;100.00
21817;BME280;13247;47.504;7.382;2023-04-29T00:15:35;97115.34;;;16.77;100.00
21817;BME280;13247;47.504;7.382;2023-04-29T00:18:21;97107.53;;;16.60;100.00
21817;BME280;13247;47.504;7.382;2023-04-29T00:21:05;97111.50;;;16.53;100.00
21817;BME280;13247;47.504;7.382;2023-04-29T00:23:50;97124.78;;;16.06;100.00
21817;BME280;13247;47.504;7.382;2023-04-29T00:26:35;97134.59;;;15.73;100.00
21817;BME280;13247;47.504;7.382;2023-04-29T00:29:20;97130.13;;;15.73;100.00
21817;BME280;13247;47.504;7.382;2023-04-29T00:32:06;97125.28;;;15.97;100.00
21817;BME280;13247;47.504;7.382;2023-04-29T00:34:51;97119.53;;;16.20;100.00
21817;BME280;13247;47.504;7.382;2023-04-29T00:37:36;97108.97;;;16.20;100.00
21817;BME280;13247;47.504;7.382;2023-04-29T00:40:21;97104.13;;;16.13;100.00
21817;BME280;13247;47.504;7.382;2023-04-29T00:43:06;97105.41;;;16.06;100.00
21817;BME280;13247;47.504;7.382;2023-04-29T00:45:50;97111.72;;;16.03;100.00
21817;BME280;13247;47.504;7.382;2023-04-29T00:48:35;97116.47;;;15.97;100.00
21817;BME280;13247;47.504;7.382;2023-04-29T00:51:20;97109.50;;;16.11;100.00
21817;BME280;13247;47.504;7.382;2023-04-29T00:54:04;97105.38;;;16.21;100.00
21817;BME280;13247;47.504;7.382;2023-04-29T00:56:50;97104.63;;;16.19;100.00
21817;BME280;13247;47.504;7.382;2023-04-29T00:59:37;97108.66;;;16.11;100.00
21817;BME280;13247;47.504;7.382;2023-04-29T01:02:22;97107.47;;;16.01;100.00
21817;BME280;13247;47.504;7.382;2023-04-29T01:05:07;97111.28;;;15.95;100.00
21817;BME280;13247;47.504;7.382;2023-04-29T01:08:13;97101.13;;;16.19;100.00
21817;BME280;13247;47.504;7.382;2023-04-29T01:11:11;97112.72;;;16.16;100.00
21817;BME280;13247;47.504;7.382;2023-04-29T01:13:59;97111.44;;;16.08;100.00
21817;BME280;13247;47.504;7.382;2023-04-29T01:16:55;97110.06;;;16.16;100.00
21817;BME280;13247;47.504;7.382;2023-04-29T01:19:54;97107.78;;;16.10;100.00
21817;BME280;13247;47.504;7.382;2023-04-29T01:22:41;97109.00;;;16.05;100.00
21817;BME280;13247;47.504;7.382;2023-04-29T01:25:26;97101.56;;;16.11;100.00
21817;BME280;13247;47.504;7.382;2023-04-29T01:28:33;97104.81;;;16.01;100.00
21817;BME280;13247;47.504;7.382;2023-04-29T01:31:24;97105.44;;;15.90;100.00
21817;BME280;13247;47.504;7.382;2023-04-29T01:34:21;97099.84;;;15.95;100.00
21817;BME280;13247;47.504;7.382;2023-04-29T01:40:49;97095.84;;;16.03;100.00
21817;BME280;13247;47.504;7.382;2023-04-29T01:43:40;97086.22;;;16.02;100.00
21817;BME280;13247;47.504;7.382;2023-04-29T01:46:27;97087.69;;;15.92;100.00
21817;BME280;13247;47.504;7.382;2023-04-29T01:49:12;97099.28;;;15.90;100.00
21817;BME280;13247;47.504;7.382;2023-04-29T01:51:57;97104.31;;;15.79;100.00
21817;BME280;13247;47.504;7.382;2023-04-29T01:54:42;97118.72;;;15.40;100.00
21817;BME280;13247;47.504;7.382;2023-04-29T01:57:27;97118.63;;;15.42;100.00
21817;BME280;13247;47.504;7.382;2023-04-29T02:00:11;97113.75;;;15.67;100.00
21817;BME280;13247;47.504;7.382;2023-04-29T02:02:56;97111.72;;;15.72;100.00
21817;BME280;13247;47.504;7.382;2023-04-29T02:05:42;97114.78;;;15.80;100.00
21817;BME280;13247;47.504;7.382;2023-04-29T02:08:27;97115.13;;;15.74;100.00
21817;BME280;13247;47.504;7.382;2023-04-29T02:11:11;97117.09;;;15.70;100.00
21817;BME280;13247;47.504;7.382;2023-04-29T02:13:56;97113.88;;;15.81;100.00
21817;BME280;13247;47.504;7.382;2023-04-29T02:16:43;97114.28;;;15.73;100.00
21817;BME280;13247;47.504;7.382;2023-04-29T02:19:29;97117.69;;;15.91;100.00
21817;BME280;13247;47.504;7.382;2023-04-29T02:22:13;97107.72;;;15.81;100.00
21817;BME280;13247;47.504;7.382;2023-04-29T02:24:58;97113.25;;;15.76;100.00
21817;BME280;13247;47.504;7.382;2023-04-29T02:27:43;97100.97;;;15.75;100.00
21817;BME280;13247;47.504;7.382;2023-04-29T02:30:28;97102.00;;;15.73;100.00
21817;BME280;13247;47.504;7.382;2023-04-29T02:33:14;97095.50;;;15.78;100.00
21817;BME280;13247;47.504;7.382;2023-04-29T02:35:58;97108.16;;;15.73;100.00
21817;BME280;13247;47.504;7.382;2023-04-29T02:38:43;97100.72;;;15.64;100.00
21817;BME280;13247;47.504;7.382;2023-04-29T02:41:28;97106.69;;;15.67;100.00
21817;BME280;13247;47.504;7.382;2023-04-29T02:44:12;97107.63;;;15.66;100.00
21817;BME280;13247;47.504;7.382;2023-04-29T02:46:57;97105.91;;;15.65;100.00
21817;BME280;13247;47.504;7.382;2023-04-29T02:49:41;97095.25;;;15.67;100.00
21817;BME280;13247;47.504;7.382;2023-04-29T02:52:26;97095.44;;;15.64;100.00
21817;BME280;13247;47.504;7.382;2023-04-29T02:55:11;97092.28;;;15.73;100.00
21817;BME280;13247;47.504;7.382;2023-04-29T02:57:56;97097.38;;;15.76;100.00
21817;BME280;13247;47.504;7.382;2023-04-29T03:00:41;97084.34;;;15.73;100.00
21817;BME280;13247;47.504;7.382;2023-04-29T03:03:25;97092.75;;;15.48;100.00
21817;BME280;13247;47.504;7.382;2023-04-29T03:06:13;97092.63;;;15.51;100.00
21817;BME280;13247;47.504;7.382;2023-04-29T03:08:58;97093.81;;;15.46;100.00
21817;BME280;13247;47.504;7.382;2023-04-29T03:11:43;97094.72;;;15.45;100.00
21817;BME280;13247;47.504;7.382;2023-04-29T03:14:27;97092.84;;;15.47;100.00
21817;BME280;13247;47.504;7.382;2023-04-29T03:17:13;97088.41;;;15.15;100.00
21817;BME280;13247;47.504;7.382;2023-04-29T03:19:58;97084.97;;;15.30;100.00
21817;BME280;13247;47.504;7.382;2023-04-29T03:22:43;97084.47;;;15.39;100.00
21817;BME280;13247;47.504;7.382;2023-04-29T03:25:27;97084.28;;;15.26;100.00
21817;BME280;13247;47.504;7.382;2023-04-29T03:28:12;97082.84;;;15.36;100.00
21817;BME280;13247;47.504;7.382;2023-04-29T03:30:58;97081.72;;;15.40;100.00
21817;BME280;13247;47.504;7.382;2023-04-29T03:33:44;97079.56;;;15.31;100.00
21817;BME280;13247;47.504;7.382;2023-04-29T03:36:28;97079.31;;;15.20;100.00
21817;BME280;13247;47.504;7.382;2023-04-29T03:39:13;97080.00;;;14.91;100.00
21817;BME280;13247;47.504;7.382;2023-04-29T03:42:01;97083.69;;;15.04;100.00
21817;BME280;13247;47.504;7.382;2023-04-29T03:44:46;97083.31;;;15.12;100.00
21817;BME280;13247;47.504;7.382;2023-04-29T03:47:30;97077.31;;;15.08;100.00
21817;BME280;13247;47.504;7.382;2023-04-29T03:50:15;97082.13;;;14.84;100.00
21817;BME280;13247;47.504;7.382;2023-04-29T03:53:00;97094.94;;;14.75;100.00
21817;BME280;13247;47.504;7.382;2023-04-29T03:55:44;97106.69;;;14.52;100.00
21817;BME280;13247;47.504;7.382;2023-04-29T03:58:29;97102.88;;;14.22;100.00
21817;BME280;13247;47.504;7.382;2023-04-29T04:01:14;97119.94;;;14.15;100.00
21817;BME280;13247;47.504;7.382;2023-04-29T04:03:59;97113.34;;;14.06;100.00
21817;BME280;13247;47.504;7.382;2023-04-29T04:06:44;97108.53;;;14.33;100.00
21817;BME280;13247;47.504;7.382;2023-04-29T04:09:34;97102.47;;;14.31;100.00
21817;BME280;13247;47.504;7.382;2023-04-29T04:12:19;97103.97;;;14.18;100.00
21817;BME280;13247;47.504;7.382;2023-04-29T04:15:04;97107.66;;;14.33;100.00
21817;BME280;13247;47.504;7.382;2023-04-29T04:17:49;97114.47;;;14.01;100.00
21817;BME280;13247;47.504;7.382;2023-04-29T04:20:37;97126.66;;;14.03;100.00
21817;BME280;13247;47.504;7.382;2023-04-29T04:23:22;97113.13;;;14.28;100.00
21817;BME280;13247;47.504;7.382;2023-04-29T04:26:08;97117.78;;;14.23;100.00
21817;BME280;13247;47.504;7.382;2023-04-29T04:28:52;97123.69;;;14.28;100.00
21817;BME280;13247;47.504;7.382;2023-04-29T04:31:37;97122.34;;;14.19;100.00
21817;BME280;13247;47.504;7.382;2023-04-29T04:34:22;97119.84;;;13.62;100.00
21817;BME280;13247;47.504;7.382;2023-04-29T04:37:06;97129.38;;;13.09;100.00
21817;BME280;13247;47.504;7.382;2023-04-29T04:39:51;97133.09;;;13.23;100.00
21817;BME280;13247;47.504;7.382;2023-04-29T04:42:36;97128.34;;;13.69;100.00
21817;BME280;13247;47.504;7.382;2023-04-29T04:45:21;97130.72;;;13.92;100.00
21817;BME280;13247;47.504;7.382;2023-04-29T04:48:05;97129.22;;;14.05;100.00
21817;BME280;13247;47.504;7.382;2023-04-29T04:50:50;97133.06;;;14.16;100.00
21817;BME280;13247;47.504;7.382;2023-04-29T04:53:35;97135.22;;;14.08;100.00
21817;BME280;13247;47.504;7.382;2023-04-29T04:56:20;97133.13;;;14.34;100.00
21817;BME280;13247;47.504;7.382;2023-04-29T04:59:05;97129.47;;;14.36;100.00
21817;BME280;13247;47.504;7.382;2023-04-29T05:01:49;97140.75;;;14.21;100.00
21817;BME280;13247;47.504;7.382;2023-04-29T05:04:35;97143.91;;;14.29;100.00
21817;BME280;13247;47.504;7.382;2023-04-29T05:07:19;97149.72;;;14.36;100.00
21817;BME280;13247;47.504;7.382;2023-04-29T05:10:04;97152.91;;;14.59;100.00
21817;BME280;13247;47.504;7.382;2023-04-29T05:12:50;97149.59;;;14.73;100.00
21817;BME280;13247;47.504;7.382;2023-04-29T05:15:34;97150.44;;;14.56;100.00
21817;BME280;13247;47.504;7.382;2023-04-29T05:18:19;97160.59;;;14.28;100.00
21817;BME280;13247;47.504;7.382;2023-04-29T05:21:04;97169.97;;;14.16;100.00
21817;BME280;13247;47.504;7.382;2023-04-29T05:23:49;97161.63;;;14.44;100.00
21817;BME280;13247;47.504;7.382;2023-04-29T05:26:34;97164.75;;;14.69;100.00
21817;BME280;13247;47.504;7.382;2023-04-29T05:29:19;97167.84;;;14.77;100.00
21817;BME280;13247;47.504;7.382;2023-04-29T05:32:04;97167.94;;;14.93;100.00
21817;BME280;13247;47.504;7.382;2023-04-29T05:34:48;97165.19;;;14.94;100.00
21817;BME280;13247;47.504;7.382;2023-04-29T05:37:34;97170.94;;;15.03;100.00
21817;BME280;13247;47.504;7.382;2023-04-29T05:40:19;97174.56;;;15.17;100.00
21817;BME280;13247;47.504;7.382;2023-04-29T05:43:04;97167.19;;;15.24;100.00
21817;BME280;13247;47.504;7.382;2023-04-29T05:45:48;97171.81;;;15.36;100.00
21817;BME280;13247;47.504;7.382;2023-04-29T05:48:33;97172.91;;;15.32;100.00
21817;BME280;13247;47.504;7.382;2023-04-29T05:51:18;97178.91;;;15.35;100.00
21817;BME280;13247;47.504;7.382;2023-04-29T05:54:03;97177.91;;;15.70;100.00
21817;BME280;13247;47.504;7.382;2023-04-29T05:56:48;97184.22;;;15.68;100.00
21817;BME280;13247;47.504;7.382;2023-04-29T05:59:33;97186.50;;;15.41;100.00
21817;BME280;13247;47.504;7.382;2023-04-29T06:02:18;97185.88;;;15.53;100.00
21817;BME280;13247;47.504;7.382;2023-04-29T06:05:02;97181.47;;;15.69;100.00
21817;BME280;13247;47.504;7.382;2023-04-29T06:07:47;97189.25;;;15.73;100.00
21817;BME280;13247;47.504;7.382;2023-04-29T06:10:32;97200.97;;;15.51;100.00
21817;BME280;13247;47.504;7.382;2023-04-29T06:13:17;97207.38;;;15.63;100.00
21817;BME280;13247;47.504;7.382;2023-04-29T06:16:02;97199.22;;;15.67;100.00
21817;BME280;13247;47.504;7.382;2023-04-29T06:18:47;97200.84;;;15.70;100.00
21817;BME280;13247;47.504;7.382;2023-04-29T06:21:31;97195.84;;;15.81;100.00
21817;BME280;13247;47.504;7.382;2023-04-29T06:24:16;97193.09;;;15.83;100.00
21817;BME280;13247;47.504;7.382;2023-04-29T06:27:01;97195.94;;;15.95;100.00
21817;BME280;13247;47.504;7.382;2023-04-29T06:29:47;97185.25;;;15.97;100.00
21817;BME280;13247;47.504;7.382;2023-04-29T06:32:32;97201.47;;;15.91;100.00
21817;BME280;13247;47.504;7.382;2023-04-29T06:35:17;97198.75;;;15.92;100.00
21817;BME280;13247;47.504;7.382;2023-04-29T06:38:02;97205.00;;;16.07;100.00
21817;BME280;13247;47.504;7.382;2023-04-29T06:40:46;97193.81;;;16.17;100.00
21817;BME280;13247;47.504;7.382;2023-04-29T06:43:31;97206.09;;;16.34;100.00
21817;BME280;13247;47.504;7.382;2023-04-29T06:46:16;97204.22;;;16.52;100.00
21817;BME280;13247;47.504;7.382;2023-04-29T06:49:00;97197.06;;;16.54;100.00
21817;BME280;13247;47.504;7.382;2023-04-29T06:51:45;97191.06;;;16.66;100.00
21817;BME280;13247;47.504;7.382;2023-04-29T06:54:29;97192.22;;;16.76;100.00
21817;BME280;13247;47.504;7.382;2023-04-29T06:57:14;97195.63;;;16.93;100.00
21817;BME280;13247;47.504;7.382;2023-04-29T06:59:59;97189.09;;;16.99;100.00
21817;BME280;13247;47.504;7.382;2023-04-29T07:02:46;97190.06;;;17.12;100.00
21817;BME280;13247;47.504;7.382;2023-04-29T07:05:31;97187.97;;;17.17;100.00
21817;BME280;13247;47.504;7.382;2023-04-29T07:08:16;97188.16;;;17.00;100.00
21817;BME280;13247;47.504;7.382;2023-04-29T07:11:00;97186.28;;;17.16;100.00
21817;BME280;13247;47.504;7.382;2023-04-29T07:13:46;97192.75;;;17.26;100.00
21817;BME280;13247;47.504;7.382;2023-04-29T07:16:30;97196.34;;;17.25;100.00
21817;BME280;13247;47.504;7.382;2023-04-29T07:19:16;97198.47;;;17.48;100.00
21817;BME280;13247;47.504;7.382;2023-04-29T07:22:01;97199.25;;;17.64;100.00
21817;BME280;13247;47.504;7.382;2023-04-29T07:24:45;97198.41;;;17.64;100.00
21817;BME280;13247;47.504;7.382;2023-04-29T07:27:33;97194.25;;;17.74;100.00
21817;BME280;13247;47.504;7.382;2023-04-29T07:30:18;97203.16;;;17.73;100.00
21817;BME280;13247;47.504;7.382;2023-04-29T07:33:03;97200.09;;;17.79;100.00
21817;BME280;13247;47.504;7.382;2023-04-29T07:35:48;97200.22;;;17.77;100.00
21817;BME280;13247;47.504;7.382;2023-04-29T07:38:33;97194.69;;;17.80;100.00
21817;BME280;13247;47.504;7.382;2023-04-29T07:41:18;97204.00;;;17.73;100.00
21817;BME280;13247;47.504;7.382;2023-04-29T07:44:02;97205.50;;;17.77;100.00
21817;BME280;13247;47.504;7.382;2023-04-29T07:46:47;97208.75;;;17.82;100.00
21817;BME280;13247;47.504;7.382;2023-04-29T07:49:32;97207.22;;;17.64;100.00
21817;BME280;13247;47.504;7.382;2023-04-29T07:52:17;97208.38;;;17.88;100.00
21817;BME280;13247;47.504;7.382;2023-04-29T07:55:02;97202.66;;;17.94;100.00
21817;BME280;13247;47.504;7.382;2023-04-29T07:57:46;97199.81;;;18.12;100.00
21817;BME280;13247;47.504;7.382;2023-04-29T08:00:31;97211.06;;;18.15;100.00
21817;BME280;13247;47.504;7.382;2023-04-29T08:03:19;97210.28;;;18.27;100.00
21817;BME280;13247;47.504;7.382;2023-04-29T08:06:04;97209.69;;;18.36;100.00
21817;BME280;13247;47.504;7.382;2023-04-29T08:08:50;97215.88;;;18.23;100.00
21817;BME280;13247;47.504;7.382;2023-04-29T08:11:35;97223.91;;;17.94;100.00
21817;BME280;13247;47.504;7.382;2023-04-29T08:14:19;97232.09;;;17.18;100.00
21817;BME280;13247;47.504;7.382;2023-04-29T08:17:04;97235.72;;;16.72;100.00
21817;BME280;13247;47.504;7.382;2023-04-29T08:19:49;97241.56;;;16.92;100.00
21817;BME280;13247;47.504;7.382;2023-04-29T08:22:33;97243.84;;;17.14;100.00
21817;BME280;13247;47.504;7.382;2023-04-29T08:25:18;97244.19;;;16.78;100.00
21817;BME280;13247;47.504;7.382;2023-04-29T08:28:03;97243.06;;;16.67;100.00
21817;BME280;13247;47.504;7.382;2023-04-29T08:30:49;97241.06;;;17.01;100.00
21817;BME280;13247;47.504;7.382;2023-04-29T08:33:34;97237.03;;;17.24;100.00
21817;BME280;13247;47.504;7.382;2023-04-29T08:36:19;97235.75;;;17.31;100.00
21817;BME280;13247;47.504;7.382;2023-04-29T08:39:04;97226.06;;;17.30;100.00
21817;BME280;13247;47.504;7.382;2023-04-29T08:41:48;97224.44;;;17.57;100.00
21817;BME280;13247;47.504;7.382;2023-04-29T08:44:35;97235.34;;;17.67;100.00
21817;BME280;13247;47.504;7.382;2023-04-29T08:47:20;97231.19;;;17.33;100.00
21817;BME280;13247;47.504;7.382;2023-04-29T08:50:07;97234.25;;;17.41;100.00
21817;BME280;13247;47.504;7.382;2023-04-29T08:52:52;97234.06;;;17.44;100.00
21817;BME280;13247;47.504;7.382;2023-04-29T08:55:46;97233.34;;;17.56;100.00
21817;BME280;13247;47.504;7.382;2023-04-29T08:58:33;97235.56;;;17.78;100.00
21817;BME280;13247;47.504;7.382;2023-04-29T09:01:21;97239.34;;;17.88;100.00
21817;BME280;13247;47.504;7.382;2023-04-29T09:04:30;97235.25;;;18.11;100.00
21817;BME280;13247;47.504;7.382;2023-04-29T09:07:18;97235.63;;;18.04;100.00
21817;BME280;13247;47.504;7.382;2023-04-29T09:10:04;97237.44;;;18.18;100.00
21817;BME280;13247;47.504;7.382;2023-04-29T09:12:49;97241.09;;;18.30;100.00
21817;BME280;13247;47.504;7.382;2023-04-29T09:15:38;97243.59;;;18.04;100.00
21817;BME280;13247;47.504;7.382;2023-04-29T09:18:50;97244.19;;;18.10;100.00
21817;BME280;13247;47.504;7.382;2023-04-29T09:21:35;97239.03;;;18.21;100.00
21817;BME280;13247;47.504;7.382;2023-04-29T09:24:27;97240.06;;;18.32;100.00
21817;BME280;13247;47.504;7.382;2023-04-29T09:27:26;97237.22;;;18.21;100.00
21817;BME280;13247;47.504;7.382;2023-04-29T09:30:12;97240.22;;;18.43;100.00
21817;BME280;13247;47.504;7.382;2023-04-29T09:33:05;97238.03;;;18.64;100.00
21817;BME280;13247;47.504;7.382;2023-04-29T09:35:50;97231.50;;;18.55;100.00
21817;BME280;13247;47.504;7.382;2023-04-29T09:38:35;97233.59;;;18.50;100.00
21817;BME280;13247;47.504;7.382;2023-04-29T09:41:20;97227.25;;;18.39;100.00
21817;BME280;13247;47.504;7.382;2023-04-29T09:44:07;97226.03;;;18.30;100.00
21817;BME280;13247;47.504;7.382;2023-04-29T09:49:42;97220.53;;;18.74;100.00
21817;BME280;13247;47.504;7.382;2023-04-29T09:52:39;97219.38;;;18.78;100.00
21817;BME280;13247;47.504;7.382;2023-04-29T09:55:27;97215.09;;;18.75;100.00
21817;BME280;13247;47.504;7.382;2023-04-29T09:58:28;97207.34;;;19.12;100.00
21817;BME280;13247;47.504;7.382;2023-04-29T10:01:14;97210.44;;;18.52;100.00
21817;BME280;13247;47.504;7.382;2023-04-29T10:04:03;97208.44;;;18.42;100.00
21817;BME280;13247;47.504;7.382;2023-04-29T10:06:50;97203.44;;;18.78;100.00
21817;BME280;13247;47.504;7.382;2023-04-29T10:09:37;97211.47;;;19.03;100.00
21817;BME280;13247;47.504;7.382;2023-04-29T10:12:23;97206.09;;;18.78;100.00
21817;BME280;13247;47.504;7.382;2023-04-29T10:15:38;97208.50;;;19.34;100.00
21817;BME280;13247;47.504;7.382;2023-04-29T10:18:33;97205.38;;;19.28;100.00
21817;BME280;13247;47.504;7.382;2023-04-29T10:21:29;97214.06;;;19.17;100.00
21817;BME280;13247;47.504;7.382;2023-04-29T10:24:17;97212.13;;;19.46;100.00
21817;BME280;13247;47.504;7.382;2023-04-29T10:27:07;97215.31;;;19.89;100.00
21817;BME280;13247;47.504;7.382;2023-04-29T10:29:56;97212.50;;;20.28;100.00
21817;BME280;13247;47.504;7.382;2023-04-29T10:32:43;97205.94;;;19.45;100.00
21817;BME280;13247;47.504;7.382;2023-04-29T10:35:28;97204.50;;;19.27;100.00
21817;BME280;13247;47.504;7.382;2023-04-29T10:38:23;97202.84;;;19.51;100.00
21817;BME280;13247;47.504;7.382;2023-04-29T10:41:29;97196.38;;;19.93;100.00
21817;BME280;13247;47.504;7.382;2023-04-29T10:44:15;97207.53;;;19.98;100.00
21817;BME280;13247;47.504;7.382;2023-04-29T10:47:19;97202.88;;;19.77;100.00
21817;BME280;13247;47.504;7.382;2023-04-29T10:50:04;97203.88;;;19.24;100.00
21817;BME280;13247;47.504;7.382;2023-04-29T10:52:54;97197.22;;;19.56;100.00
21817;BME280;13247;47.504;7.382;2023-04-29T10:55:40;97193.16;;;19.88;100.00
21817;BME280;13247;47.504;7.382;2023-04-29T10:58:42;97192.59;;;19.96;100.00
21817;BME280;13247;47.504;7.382;2023-04-29T11:01:41;97200.94;;;19.91;100.00
21817;BME280;13247;47.504;7.382;2023-04-29T11:04:26;97186.44;;;20.08;100.00
21817;BME280;13247;47.504;7.382;2023-04-29T11:07:26;97187.44;;;20.43;100.00
21817;BME280;13247;47.504;7.382;2023-04-29T11:10:12;97183.22;;;20.15;100.00
21817;BME280;13247;47.504;7.382;2023-04-29T11:16:09;97184.72;;;20.56;100.00
21817;BME280;13247;47.504;7.382;2023-04-29T11:22:06;97176.00;;;20.77;100.00
21817;BME280;13247;47.504;7.382;2023-04-29T11:25:01;97176.66;;;20.68;100.00
21817;BME280;13247;47.504;7.382;2023-04-29T11:27:47;97175.53;;;20.83;95.27
21817;BME280;13247;47.504;7.382;2023-04-29T11:30:33;97173.81;;;20.35;100.00
21817;BME280;13247;47.504;7.382;2023-04-29T11:33:26;97173.38;;;20.88;100.00
21817;BME280;13247;47.504;7.382;2023-04-29T11:36:11;97160.94;;;21.00;93.09
21817;BME280;13247;47.504;7.382;2023-04-29T11:38:56;97165.09;;;20.80;90.19
21817;BME280;13247;47.504;7.382;2023-04-29T11:41:43;97154.13;;;20.96;94.17
21817;BME280;13247;47.504;7.382;2023-04-29T11:44:27;97158.72;;;20.94;100.00
21817;BME280;13247;47.504;7.382;2023-04-29T11:47:12;97154.34;;;20.93;99.41
21817;BME280;13247;47.504;7.382;2023-04-29T11:50:07;97158.56;;;21.54;81.01
21817;BME280;13247;47.504;7.382;2023-04-29T11:52:57;97154.56;;;21.70;90.10
21817;BME280;13247;47.504;7.382;2023-04-29T11:55:43;97159.41;;;21.65;83.94
21817;BME280;13247;47.504;7.382;2023-04-29T11:58:28;97162.38;;;21.28;83.81
21817;BME280;13247;47.504;7.382;2023-04-29T12:01:13;97164.28;;;21.15;85.36
21817;BME280;13247;47.504;7.382;2023-04-29T12:03:58;97155.88;;;21.65;76.70
21817;BME280;13247;47.504;7.382;2023-04-29T12:06:43;97164.44;;;21.24;88.33
21817;BME280;13247;47.504;7.382;2023-04-29T12:09:28;97155.41;;;21.03;99.33
21817;BME280;13247;47.504;7.382;2023-04-29T12:12:13;97161.88;;;21.23;96.43
21817;BME280;13247;47.504;7.382;2023-04-29T12:14:59;97150.25;;;21.24;100.00
21817;BME280;13247;47.504;7.382;2023-04-29T12:17:44;97154.59;;;21.25;100.00
21817;BME280;13247;47.504;7.382;2023-04-29T12:20:30;97157.22;;;20.79;99.69
21817;BME280;13247;47.504;7.382;2023-04-29T12:23:17;97156.59;;;20.99;97.98
21817;BME280;13247;47.504;7.382;2023-04-29T12:26:02;97149.53;;;21.22;100.00
21817;BME280;13247;47.504;7.382;2023-04-29T12:28:52;97149.53;;;21.22;98.13
21817;BME280;13247;47.504;7.382;2023-04-29T12:31:37;97147.06;;;21.19;98.15
21817;BME280;13247;47.504;7.382;2023-04-29T12:34:28;97142.00;;;21.16;96.10
21817;BME280;13247;47.504;7.382;2023-04-29T12:37:14;97145.75;;;20.66;97.13
21817;BME280;13247;47.504;7.382;2023-04-29T12:40:00;97146.47;;;20.91;95.26
21817;BME280;13247;47.504;7.382;2023-04-29T12:42:44;97148.56;;;21.34;90.07
21817;BME280;13247;47.504;7.382;2023-04-29T12:45:32;97147.75;;;20.75;97.65
21817;BME280;13247;47.504;7.382;2023-04-29T12:48:17;97139.78;;;21.09;99.69
21817;BME280;13247;47.504;7.382;2023-04-29T12:51:02;97133.25;;;21.14;96.08
21817;BME280;13247;47.504;7.382;2023-04-29T12:53:47;97133.09;;;21.72;91.23
21817;BME280;13247;47.504;7.382;2023-04-29T12:56:32;97126.41;;;21.55;89.58
21817;BME280;13247;47.504;7.382;2023-04-29T12:59:17;97134.31;;;21.79;83.35
21817;BME280;13247;47.504;7.382;2023-04-29T13:02:01;97132.84;;;22.08;81.89
21817;BME280;13247;47.504;7.382;2023-04-29T13:04:46;97128.59;;;22.17;78.89
21817;BME280;13247;47.504;7.382;2023-04-29T13:07:31;97132.34;;;21.37;98.51
21817;BME280;13247;47.504;7.382;2023-04-29T13:10:16;97131.81;;;21.21;100.00
21817;BME280;13247;47.504;7.382;2023-04-29T13:13:01;97128.19;;;21.44;89.68
21817;BME280;13247;47.504;7.382;2023-04-29T13:15:46;97128.97;;;21.79;83.82
21817;BME280;13247;47.504;7.382;2023-04-29T13:18:31;97126.47;;;21.21;93.87
21817;BME280;13247;47.504;7.382;2023-04-29T13:21:16;97134.16;;;20.43;100.00
21817;BME280;13247;47.504;7.382;2023-04-29T13:24:00;97140.41;;;20.55;100.00
21817;BME280;13247;47.504;7.382;2023-04-29T13:26:45;97131.09;;;20.60;100.00
21817;BME280;13247;47.504;7.382;2023-04-29T13:29:31;97133.41;;;20.41;100.00
21817;BME280;13247;47.504;7.382;2023-04-29T13:32:16;97138.19;;;20.25;100.00
21817;BME280;13247;47.504;7.382;2023-04-29T13:35:00;97135.13;;;20.42;100.00
21817;BME280;13247;47.504;7.382;2023-04-29T13:37:45;97130.34;;;20.58;100.00
21817;BME280;13247;47.504;7.382;2023-04-29T13:40:31;97134.94;;;20.56;100.00
21817;BME280;13247;47.504;7.382;2023-04-29T13:43:16;97139.50;;;19.94;100.00
21817;BME280;13247;47.504;7.382;2023-04-29T13:46:01;97142.09;;;20.19;100.00
21817;BME280;13247;47.504;7.382;2023-04-29T13:48:46;97140.50;;;20.29;100.00
21817;BME280;13247;47.504;7.382;2023-04-29T13:51:30;97145.81;;;20.53;100.00
21817;BME280;13247;47.504;7.382;2023-04-29T13:54:15;97137.63;;;20.56;100.00
21817;BME280;13247;47.504;7.382;2023-04-29T13:57:01;97143.22;;;20.41;100.00
21817;BME280;13247;47.504;7.382;2023-04-29T13:59:48;97154.13;;;20.61;100.00
21817;BME280;13247;47.504;7.382;2023-04-29T14:02:36;97159.31;;;20.39;100.00
21817;BME280;13247;47.504;7.382;2023-04-29T14:05:21;97152.75;;;20.56;100.00
21817;BME280;13247;47.504;7.382;2023-04-29T14:08:06;97158.50;;;20.26;100.00
21817;BME280;13247;47.504;7.382;2023-04-29T14:10:50;97155.84;;;20.26;100.00
21817;BME280;13247;47.504;7.382;2023-04-29T14:13:35;97148.78;;;20.61;100.00
21817;BME280;13247;47.504;7.382;2023-04-29T14:16:20;97148.88;;;20.36;100.00
21817;BME280;13247;47.504;7.382;2023-04-29T14:19:05;97159.25;;;20.28;100.00
21817;BME280;13247;47.504;7.382;2023-04-29T14:21:50;97143.94;;;20.66;100.00
21817;BME280;13247;47.504;7.382;2023-04-29T14:24:35;97146.34;;;20.58;100.00
21817;BME280;13247;47.504;7.382;2023-04-29T14:27:20;97160.84;;;20.18;100.00
21817;BME280;13247;47.504;7.382;2023-04-29T14:30:05;97154.72;;;20.65;100.00
21817;BME280;13247;47.504;7.382;2023-04-29T14:32:50;97150.06;;;20.32;100.00
21817;BME280;13247;47.504;7.382;2023-04-29T14:35:35;97154.66;;;20.30;100.00
21817;BME280;13247;47.504;7.382;2023-04-29T14:38:19;97150.78;;;20.34;100.00
21817;BME280;13247;47.504;7.382;2023-04-29T14:41:04;97157.59;;;20.51;100.00
21817;BME280;13247;47.504;7.382;2023-04-29T14:43:49;97155.25;;;20.46;100.00